Cordova, SC (29039)

4:21 AM EDT on September 28, 2016 (GMT -0400)
Orangeburg Municipal | | Change Station

Elev 197 ft 33.46 °N, 80.86 °W | Updated 28 minutes ago

Clear
Clear
71 °F
Feels Like 71 °F
N
0
Wind Variable Wind from North

Today
High -- | Low -- °F
--% Chance of Precip.
Yesterday
High -- | Low -- °F
Precip. -- in
Pressure 29.92 in
Visibility 4.0 miles
Clouds Clear
Dew Point 70 °F
Humidity 96%
Rainfall 0.00 in
Snow Depth Not available.
7:16 AM 7:11 PM
Waning Crescent, 7% visible
METAR KOGB 280753Z AUTO 00000KT 4SM BR CLR 22/21 A2993 RMK AO2 SLP130 T02170211
Pressure 29.92 in
Visibility 4.0 miles
Clouds Clear
Dew Point 70 °F
Humidity 96%
Rainfall 0.00 in
Snow Depth Not available.
7:16 AM 7:11 PM
Waning Crescent, 7% visible
METAR KOGB 280753Z AUTO 00000KT 4SM BR CLR 22/21 A2993 RMK AO2 SLP130 T02170211

10-Day Weather Forecast

Almanac

Astronomy

Sep. 28, 2016 Rise Set
Actual Time
Civil Twilight
Nautical Twilight
Astronomical Twilight
Moon
Length of Visible Light
Length of Day
Tomorrow will be .
, % of the Moon is Illuminated

Today's Extremes

State Highs State Lows

Community

WunderPhotos

Upload Photos

1,942,216 photos uploaded!

WunderBlog® & News

Nearby

Air Quality

  Air Quality AQ Index Pollutant
Not available.

Snow Depth

Station Depth Elevation

Earthquake Activity

City Distance Mag. Time & Date
Minimum magnitude displayed is 2.5.

Coastal Water Temperatures

Place Temperature

Stations

Nearby Weather Stations

Station Location Temp. Windchill Dew Point Humidity Wind Precip. Elev Updated Type
                   

Watches & Warnings

There are currently no watches in effect.